Time;durP1;ratioP1;P1;durP2;ratioP2;P2;SDS_P1;SDS_P2;PMS_P1;PMS_P2;Temp;Humidity;BMP_temperature;BMP_pressure;BME280_temperature;BME280_humidity;BME280_pressure;Samples;Min_cycle;Max_cycle;Signal;HPM_P1;HPM_P2
2023/07/11 00:02:26;;;;;;;27.27;10.73;;;25.80;99.90;;;;;;7400829;19;19914;-72
2023/07/11 00:04:52;;;;;;;22.75;11.45;;;25.80;99.90;;;;;;7401747;19;20255;-72
2023/07/11 00:07:18;;;;;;;22.20;9.88;;;25.70;99.90;;;;;;7401902;19;19926;-72
2023/07/11 00:09:48;;;;;;;19.80;9.50;;;25.80;99.90;;;;;;7402083;19;19926;-72
2023/07/11 00:12:17;;;;;;;19.38;9.00;;;25.80;99.90;;;;;;7399993;19;19921;-72
2023/07/11 00:14:44;;;;;;;24.00;9.52;;;25.90;99.90;;;;;;7401201;19;19941;-72
2023/07/11 00:17:10;;;;;;;22.08;9.10;;;25.90;99.90;;;;;;7400905;19;19918;-74
2023/07/11 00:19:56;;;;;;;18.98;10.13;;;25.90;99.90;;;;;;7404313;19;20254;-73
2023/07/11 00:22:23;;;;;;;24.25;9.15;;;25.80;99.90;;;;;;7397856;19;19942;-71
2023/07/11 00:24:50;;;;;;;21.83;8.68;;;25.70;99.90;;;;;;7401974;19;19922;-73
2023/07/11 00:27:17;;;;;;;21.00;9.15;;;25.80;99.90;;;;;;7400570;19;20444;-72
2023/07/11 00:29:44;;;;;;;18.20;8.95;;;25.90;99.90;;;;;;7401291;19;19938;-73
2023/07/11 00:32:10;;;;;;;24.05;8.63;;;25.90;99.90;;;;;;7398147;19;19910;-72
2023/07/11 00:34:36;;;;;;;27.52;11.23;;;25.80;99.90;;;;;;7404312;19;20927;-73
2023/07/11 00:37:02;;;;;;;23.40;9.55;;;25.60;99.90;;;;;;7402453;19;19923;-73
2023/07/11 00:39:30;;;;;;;22.58;9.70;;;25.60;99.90;;;;;;7400719;19;20318;-72
2023/07/11 00:41:56;;;;;;;19.33;8.80;;;25.50;99.90;;;;;;7402999;19;19960;-72
2023/07/11 00:44:23;;;;;;;25.55;10.40;;;25.60;99.90;;;;;;7398123;19;19926;-73
2023/07/11 00:46:49;;;;;;;19.50;10.07;;;25.60;99.90;;;;;;7403408;19;19911;-73
2023/07/11 00:49:17;;;;;;;23.23;11.07;;;25.60;99.90;;;;;;7398952;19;19922;-72
2023/07/11 00:51:50;;;;;;;25.75;9.85;;;25.60;99.90;;;;;;7401304;19;19939;-72
2023/07/11 00:54:17;;;;;;;;;;;25.60;99.90;;;;;;7400526;19;20343;-72
2023/07/11 00:56:47;;;;;;;23.58;10.30;;;25.60;99.90;;;;;;7402788;19;19910;-72
2023/07/11 00:59:16;;;;;;;24.92;12.70;;;25.70;99.90;;;;;;7399052;19;20369;-73
2023/07/11 01:01:45;;;;;;;26.08;11.70;;;25.60;99.90;;;;;;7399371;19;19926;-73
2023/07/11 01:04:11;;;;;;;32.95;12.50;;;25.50;99.90;;;;;;7397709;19;19925;-73
2023/07/11 01:06:37;;;;;;;31.42;14.63;;;25.50;99.90;;;;;;7401676;19;20339;-71
2023/07/11 01:09:04;;;;;;;27.90;14.05;;;25.40;99.90;;;;;;7397463;19;19918;-73
2023/07/11 01:11:48;;;;;;;27.75;13.82;;;25.30;99.90;;;;;;7400651;19;21123;-73
2023/07/11 01:14:14;;;;;;;31.67;15.90;;;25.40;99.90;;;;;;7398049;19;19932;-73
2023/07/11 01:16:45;;;;;;;34.70;18.52;;;25.40;99.90;;;;;;7401920;19;20327;-73
2023/07/11 01:19:11;;;;;;;32.75;15.18;;;25.20;99.90;;;;;;7397523;19;19954;-73
2023/07/11 01:21:37;;;;;;;32.53;17.38;;;25.30;99.90;;;;;;7400648;19;19973;-75
2023/07/11 01:24:03;;;;;;;34.70;18.20;;;25.20;99.90;;;;;;7398460;19;19923;-72
2023/07/11 01:26:29;;;;;;;37.60;19.45;;;25.20;99.90;;;;;;7398268;19;19966;-73
2023/07/11 01:28:56;;;;;;;;;;;25.10;99.90;;;;;;7405273;19;19915;-72
2023/07/11 01:31:23;;;;;;;35.85;20.50;;;25.20;99.90;;;;;;7395427;19;19926;-73
2023/07/11 01:33:48;;;;;;;40.42;22.33;;;25.20;99.90;;;;;;7399521;19;19978;-73
2023/07/11 01:36:15;;;;;;;41.88;25.15;;;25.20;99.90;;;;;;7395989;19;19918;-72
2023/07/11 01:38:41;;;;;;;33.20;23.30;;;25.20;99.90;;;;;;7401828;19;19935;-72
2023/07/11 01:41:07;;;;;;;37.45;22.25;;;25.20;99.90;;;;;;7396845;19;19998;-72
2023/07/11 01:43:33;;;;;;;46.15;23.52;;;25.20;99.90;;;;;;7401444;19;19919;-72
2023/07/11 01:45:59;;;;;;;43.28;22.48;;;25.00;99.90;;;;;;7398798;19;19935;-73
2023/07/11 01:48:25;;;;;;;42.55;25.45;;;25.00;99.90;;;;;;7399287;19;21655;-72
2023/07/11 01:50:52;;;;;;;39.35;23.30;;;24.90;99.90;;;;;;7400560;19;19921;-73
2023/07/11 01:53:17;;;;;;;39.30;21.63;;;25.00;99.90;;;;;;7399870;19;19932;-73
2023/07/11 01:55:53;;;;;;;39.78;22.08;;;25.00;99.90;;;;;;7401162;19;19922;-72
2023/07/11 01:58:19;;;;;;;33.65;19.00;;;25.00;99.90;;;;;;7399805;19;19917;-72
2023/07/11 02:00:45;;;;;;;37.83;22.27;;;25.10;99.90;;;;;;7396370;19;19914;-73
2023/07/11 02:03:10;;;;;;;38.22;22.40;;;25.10;99.90;;;;;;7399935;19;19919;-74
2023/07/11 02:05:36;;;;;;;41.60;20.73;;;25.20;99.90;;;;;;7398555;19;19919;-72
2023/07/11 02:08:02;;;;;;;35.38;22.65;;;25.30;99.90;;;;;;7398614;19;20315;-75
2023/07/11 02:10:28;;;;;;;42.30;21.05;;;25.30;99.90;;;;;;7397718;19;20493;-73
2023/07/11 02:12:53;;;;;;;39.05;22.15;;;25.40;99.90;;;;;;7398161;19;19974;-74
2023/07/11 02:15:19;;;;;;;35.58;20.38;;;25.40;99.90;;;;;;7396643;19;19982;-74
2023/07/11 02:17:45;;;;;;;37.05;21.60;;;25.40;99.90;;;;;;7399866;19;19927;-73
2023/07/11 02:20:11;;;;;;;40.70;22.45;;;25.50;99.90;;;;;;7395719;19;19922;-74
2023/07/11 02:22:37;;;;;;;39.33;23.00;;;25.50;99.90;;;;;;7398494;19;19911;-74
2023/07/11 02:25:03;;;;;;;42.25;24.92;;;25.50;99.90;;;;;;7396360;19;20332;-73
2023/07/11 02:27:29;;;;;;;43.67;22.55;;;25.40;99.90;;;;;;7394468;19;20383;-73
2023/07/11 02:29:54;;;;;;;43.58;24.20;;;25.20;99.90;;;;;;7398356;19;19935;-73
2023/07/11 02:32:20;;;;;;;40.60;24.90;;;25.20;99.90;;;;;;7397894;19;19918;-74
2023/07/11 02:34:46;;;;;;;39.58;22.70;;;25.00;99.90;;;;;;7397485;19;19930;-74
2023/07/11 02:37:12;;;;;;;36.45;23.30;;;25.10;99.90;;;;;;7397094;19;19918;-74
2023/07/11 02:39:38;;;;;;;35.35;21.42;;;25.20;99.90;;;;;;7398916;19;19915;-74
2023/07/11 02:42:04;;;;;;;39.03;21.60;;;25.20;99.90;;;;;;7397722;19;19923;-74
2023/07/11 02:44:29;;;;;;;36.00;21.48;;;25.20;99.90;;;;;;7398257;19;19919;-74
2023/07/11 02:46:55;;;;;;;41.00;24.55;;;25.30;99.90;;;;;;7399786;19;19910;-74
2023/07/11 02:49:21;;;;;;;40.05;25.52;;;25.30;99.90;;;;;;7397806;19;19959;-74
2023/07/11 02:51:47;;;;;;;44.92;23.15;;;25.20;99.90;;;;;;7399779;19;19914;-73
2023/07/11 02:54:12;;;;;;;47.53;25.60;;;25.20;99.90;;;;;;7395885;19;19981;-73
2023/07/11 02:56:39;;;;;;;;;;;25.10;99.90;;;;;;7401872;19;19914;-75
2023/07/11 02:59:04;;;;;;;42.25;22.42;;;25.20;99.90;;;;;;7399743;19;19929;-73
2023/07/11 03:01:32;;;;;;;38.97;22.42;;;25.20;99.90;;;;;;7397824;19;19922;-74
2023/07/11 03:03:58;;;;;;;42.50;22.10;;;25.10;99.90;;;;;;7398754;19;20914;-75
2023/07/11 03:06:24;;;;;;;39.78;21.38;;;25.10;99.90;;;;;;7396401;19;20009;-74
2023/07/11 03:08:49;;;;;;;33.60;21.95;;;25.20;99.90;;;;;;7396765;19;19919;-74
2023/07/11 03:11:15;;;;;;;37.15;22.38;;;25.20;99.90;;;;;;7398709;19;19922;-74
2023/07/11 03:13:42;;;;;;;39.63;23.27;;;25.30;99.90;;;;;;7398535;19;20001;-73
2023/07/11 03:16:08;;;;;;;37.38;22.52;;;25.30;99.90;;;;;;7397807;19;19982;-74
2023/07/11 03:18:34;;;;;;;35.95;21.95;;;25.30;99.90;;;;;;7400104;19;20335;-73
2023/07/11 03:21:01;;;;;;;36.28;21.95;;;25.30;99.90;;;;;;7396290;19;19949;-73
2023/07/11 03:23:29;;;;;;;31.55;21.13;;;25.30;99.90;;;;;;7394412;19;19915;-73
2023/07/11 03:25:54;;;;;;;36.30;21.00;;;25.30;99.90;;;;;;7402950;19;19919;-74
2023/07/11 03:28:21;;;;;;;40.42;21.33;;;25.30;99.90;;;;;;7403279;19;19922;-73
2023/07/11 03:30:48;;;;;;;39.03;22.30;;;25.30;99.90;;;;;;7403032;19;19919;-74
2023/07/11 03:33:14;;;;;;;37.80;22.70;;;25.30;99.90;;;;;;7403634;19;20006;-74
2023/07/11 03:35:40;;;;;;;38.25;21.38;;;25.10;99.90;;;;;;7404997;19;19914;-73
2023/07/11 03:38:06;;;;;;;38.85;21.52;;;25.10;99.90;;;;;;7401824;19;19926;-73
2023/07/11 03:40:32;;;;;;;36.83;19.83;;;25.10;99.90;;;;;;7404951;19;19918;-74
2023/07/11 03:42:57;;;;;;;38.15;21.08;;;25.10;99.90;;;;;;7401965;19;19932;-74
2023/07/11 03:45:23;;;;;;;38.10;20.38;;;25.10;99.90;;;;;;7403774;19;19942;-73
2023/07/11 03:47:49;;;;;;;29.08;18.52;;;25.00;99.90;;;;;;7403494;19;19942;-73
2023/07/11 03:50:15;;;;;;;33.85;18.73;;;25.00;99.90;;;;;;7401692;19;19933;-73
2023/07/11 03:52:41;;;;;;;33.72;20.48;;;25.00;99.90;;;;;;7404739;19;19942;-74
2023/07/11 03:55:08;;;;;;;29.92;18.90;;;25.00;99.90;;;;;;7400131;19;19918;-74
2023/07/11 03:57:34;;;;;;;31.38;20.05;;;25.00;99.90;;;;;;7403016;19;19922;-73
2023/07/11 04:00:00;;;;;;;;;;;24.90;99.90;;;;;;7406187;19;19911;-73
2023/07/11 04:02:25;;;;;;;31.52;18.70;;;24.90;99.90;;;;;;7401577;19;19981;-74
2023/07/11 04:04:51;;;;;;;41.97;19.30;;;24.90;99.90;;;;;;7403335;19;19918;-73
2023/07/11 04:07:17;;;;;;;37.60;19.88;;;24.90;99.90;;;;;;7401084;19;19914;-74
2023/07/11 04:09:43;;;;;;;37.95;20.30;;;24.90;99.90;;;;;;7402003;19;19938;-73
2023/07/11 04:12:09;;;;;;;34.47;19.88;;;24.90;99.90;;;;;;7401435;19;19998;-73
2023/07/11 04:14:36;;;;;;;37.58;19.90;;;24.80;99.90;;;;;;7403324;19;19919;-74
2023/07/11 04:17:02;;;;;;;33.97;20.13;;;24.70;99.90;;;;;;7401861;19;19922;-73
2023/07/11 04:19:28;;;;;;;39.10;18.50;;;24.80;99.90;;;;;;7401458;19;19923;-74
2023/07/11 04:21:54;;;;;;;33.80;19.02;;;24.90;99.90;;;;;;7402359;19;19935;-74
2023/07/11 04:24:19;;;;;;;32.70;18.83;;;24.90;99.90;;;;;;7401639;19;19978;-73
2023/07/11 04:26:46;;;;;;;36.15;20.42;;;24.90;99.90;;;;;;7402305;19;19950;-73
2023/07/11 04:29:12;;;;;;;34.55;19.52;;;24.90;99.90;;;;;;7401673;19;19932;-73
2023/07/11 04:31:37;;;;;;;32.30;18.23;;;24.80;99.90;;;;;;7402715;19;19922;-74
2023/07/11 04:34:03;;;;;;;34.65;18.77;;;24.80;99.90;;;;;;7401753;19;19923;-74
2023/07/11 04:36:29;;;;;;;34.38;19.85;;;24.90;99.90;;;;;;7400460;19;19918;-74
2023/07/11 04:38:55;;;;;;;36.75;19.60;;;24.90;99.90;;;;;;7402380;19;19922;-73
2023/07/11 04:41:21;;;;;;;34.80;18.15;;;25.00;99.90;;;;;;7401057;19;19925;-73
2023/07/11 04:43:47;;;;;;;33.97;17.77;;;25.00;99.90;;;;;;7401983;19;20298;-72
2023/07/11 04:46:13;;;;;;;33.10;15.25;;;25.00;99.90;;;;;;7401028;19;19934;-74
2023/07/11 04:48:39;;;;;;;28.27;14.43;;;25.10;99.90;;;;;;7382373;19;19911;-72
2023/07/11 04:51:10;;;;;;;30.98;14.40;;;25.10;99.90;;;;;;7400880;19;20267;-73
2023/07/11 04:53:36;;;;;;;24.85;13.35;;;25.20;99.90;;;;;;7402282;19;19922;-72
2023/07/11 04:56:07;;;;;;;23.10;10.85;;;25.20;99.90;;;;;;7402253;19;19924;-73
2023/07/11 04:58:34;;;;;;;21.05;9.82;;;25.30;99.90;;;;;;7399016;19;20348;-71
2023/07/11 05:01:07;;;;;;;23.02;9.35;;;25.30;99.90;;;;;;7399720;19;20315;-73
2023/07/11 05:03:33;;;;;;;17.65;7.22;;;25.50;99.90;;;;;;7399701;19;20331;-72
2023/07/11 05:05:59;;;;;;;23.38;7.28;;;25.60;98.10;;;;;;7402410;19;19929;-73
2023/07/11 05:08:25;;;;;;;18.63;7.70;;;25.70;97.30;;;;;;7399473;19;19917;-73
2023/07/11 05:10:53;;;;;;;17.80;7.50;;;25.80;95.60;;;;;;7400448;19;19974;-73
2023/07/11 05:13:19;;;;;;;17.13;6.47;;;25.90;94.60;;;;;;7377686;19;19953;-73
2023/07/11 05:15:45;;;;;;;17.63;6.28;;;26.00;94.30;;;;;;7400147;19;19919;-73
2023/07/11 05:18:11;;;;;;;20.67;8.45;;;26.10;94.40;;;;;;7398355;19;19922;-73
2023/07/11 05:20:38;;;;;;;17.33;6.10;;;26.20;93.70;;;;;;7400611;19;19935;-73
2023/07/11 05:23:03;;;;;;;20.52;6.60;;;26.30;92.20;;;;;;7400718;19;19915;-72
2023/07/11 05:25:29;;;;;;;17.92;7.28;;;26.30;91.80;;;;;;7400975;19;20236;-73
2023/07/11 05:27:55;;;;;;;17.58;6.57;;;26.40;91.60;;;;;;7400641;19;19914;-72
2023/07/11 05:30:21;;;;;;;22.00;8.65;;;26.40;91.60;;;;;;7397929;19;20271;-72
2023/07/11 05:32:46;;;;;;;18.25;6.20;;;26.40;91.70;;;;;;7401821;19;19939;-73
2023/07/11 05:35:14;;;;;;;15.43;5.82;;;26.40;91.00;;;;;;7401665;19;19944;-73
2023/07/11 05:37:39;;;;;;;21.38;6.00;;;26.50;90.20;;;;;;7398919;19;19939;-73
2023/07/11 05:40:07;;;;;;;24.38;6.50;;;26.50;89.80;;;;;;7398266;19;19914;-73
2023/07/11 05:42:33;;;;;;;14.93;5.25;;;26.60;88.80;;;;;;7395925;19;19993;-73
2023/07/11 05:44:59;;;;;;;22.42;6.18;;;26.70;87.20;;;;;;7401366;19;20490;-73
2023/07/11 05:47:25;;;;;;;21.27;6.63;;;26.80;86.80;;;;;;7399155;19;20343;-74
2023/07/11 05:49:52;;;;;;;;;;;26.70;88.90;;;;;;7403551;19;19938;-73
2023/07/11 05:52:18;;;;;;;20.98;8.02;;;26.60;90.50;;;;;;7400394;19;19919;-73
2023/07/11 05:54:43;;;;;;;22.75;6.78;;;26.50;91.50;;;;;;7400619;19;19919;-73
2023/07/11 05:57:09;;;;;;;19.92;7.85;;;26.60;92.00;;;;;;7397179;19;20348;-73
2023/07/11 05:59:35;;;;;;;21.30;7.97;;;26.50;92.60;;;;;;7401906;19;20463;-73
2023/07/11 06:02:01;;;;;;;26.42;9.23;;;26.40;93.00;;;;;;7394105;19;20279;-74
2023/07/11 06:04:34;;;;;;;21.27;8.63;;;26.50;93.10;;;;;;7400398;19;19923;-74
2023/07/11 06:07:00;;;;;;;26.83;7.90;;;26.60;92.80;;;;;;7399605;19;19918;-73
2023/07/11 06:09:25;;;;;;;26.13;7.85;;;26.70;92.30;;;;;;7399598;19;19982;-74
2023/07/11 06:11:51;;;;;;;21.85;7.63;;;26.80;92.10;;;;;;7399720;19;20308;-73
2023/07/11 06:14:20;;;;;;;26.30;8.00;;;26.90;91.40;;;;;;7399956;19;20362;-73
2023/07/11 06:16:46;;;;;;;26.85;7.75;;;27.10;91.00;;;;;;7396638;19;19914;-74
2023/07/11 06:19:12;;;;;;;18.15;6.20;;;27.20;90.30;;;;;;7395804;19;21073;-74
2023/07/11 06:21:40;;;;;;;20.77;6.53;;;27.30;89.60;;;;;;7396718;19;19926;-73
2023/07/11 06:24:06;;;;;;;20.85;6.85;;;27.50;88.30;;;;;;7396723;19;19974;-74
2023/07/11 06:26:32;;;;;;;19.75;7.38;;;27.70;87.30;;;;;;7378546;19;19929;-74
2023/07/11 06:28:58;;;;;;;25.08;9.50;;;27.60;89.10;;;;;;7385179;19;19914;-75
2023/07/11 06:31:24;;;;;;;23.17;8.50;;;27.50;90.70;;;;;;7395438;19;19932;-74
2023/07/11 06:33:50;;;;;;;;;;;27.40;91.00;;;;;;7391871;19;19915;-75
2023/07/11 06:36:16;;;;;;;20.35;8.70;;;27.50;90.90;;;;;;7393885;19;19970;-75
2023/07/11 06:38:42;;;;;;;24.08;9.23;;;27.50;90.70;;;;;;7391552;19;19952;-75
2023/07/11 06:41:08;;;;;;;25.30;11.07;;;27.50;90.80;;;;;;7388072;19;20282;-74
2023/07/11 06:43:34;;;;;;;23.45;10.23;;;27.60;91.10;;;;;;7393420;19;19939;-74
2023/07/11 06:46:01;;;;;;;21.35;9.68;;;27.60;90.60;;;;;;7398755;19;19919;-74
2023/07/11 06:48:29;;;;;;;24.85;8.75;;;27.60;90.70;;;;;;7394492;19;19935;-74
2023/07/11 06:51:00;;;;;;;22.05;9.25;;;27.60;90.70;;;;;;7400080;19;20330;-74
2023/07/11 06:53:28;;;;;;;27.75;9.85;;;27.70;90.60;;;;;;7395392;19;19982;-74
2023/07/11 06:55:55;;;;;;;28.70;9.50;;;27.80;90.30;;;;;;7396334;19;20275;-74
2023/07/11 06:58:22;;;;;;;24.13;9.30;;;28.00;90.20;;;;;;7394993;19;19943;-74
2023/07/11 07:00:58;;;;;;;22.17;8.95;;;28.00;89.90;;;;;;7402759;19;19982;-74
2023/07/11 07:03:24;;;;;;;21.95;9.57;;;28.10;90.10;;;;;;7402968;19;20014;-74
2023/07/11 07:05:51;;;;;;;;;;;28.10;89.90;;;;;;7408755;19;19914;-74
2023/07/11 07:08:18;;;;;;;24.25;9.25;;;28.20;89.20;;;;;;7401781;19;19939;-74
2023/07/11 07:10:46;;;;;;;23.35;9.45;;;28.20;88.30;;;;;;7402199;19;19907;-75
2023/07/11 07:13:12;;;;;;;26.42;10.30;;;28.30;88.60;;;;;;7401969;19;20444;-74
2023/07/11 07:15:38;;;;;;;22.20;9.50;;;28.20;88.70;;;;;;7374109;19;19942;-75
2023/07/11 07:18:04;;;;;;;21.83;9.48;;;28.40;88.30;;;;;;7401118;19;19929;-76
2023/07/11 07:20:30;;;;;;;29.67;9.48;;;28.50;87.90;;;;;;7406211;19;19923;-75
2023/07/11 07:22:56;;;;;;;23.13;9.73;;;28.40;87.80;;;;;;7401718;19;19982;-75
2023/07/11 07:25:22;;;;;;;22.88;9.07;;;28.50;86.40;;;;;;7402045;19;20355;-75
2023/07/11 07:27:47;;;;;;;27.92;9.70;;;28.70;86.30;;;;;;7401759;19;19919;-75
2023/07/11 07:30:13;;;;;;;26.52;9.10;;;28.80;85.60;;;;;;7403968;19;19922;-75
2023/07/11 07:32:39;;;;;;;32.03;10.75;;;28.80;85.70;;;;;;7404732;19;20976;-74
2023/07/11 07:35:05;;;;;;;26.95;9.27;;;28.90;85.40;;;;;;7402702;19;19915;-75
2023/07/11 07:37:31;;;;;;;30.58;9.73;;;28.90;84.70;;;;;;7404645;19;19977;-76
2023/07/11 07:39:57;;;;;;;31.13;9.18;;;28.90;84.20;;;;;;7405647;19;19919;-76
2023/07/11 07:42:22;;;;;;;24.02;9.05;;;28.80;84.10;;;;;;7403725;19;20095;-76
2023/07/11 07:44:49;;;;;;;30.45;9.80;;;28.80;83.40;;;;;;7405716;19;20271;-76
2023/07/11 07:47:15;;;;;;;25.45;9.15;;;28.90;83.20;;;;;;7402102;19;19922;-75
2023/07/11 07:49:40;;;;;;;24.50;8.43;;;28.90;82.40;;;;;;7403738;19;19911;-75
2023/07/11 07:52:06;;;;;;;25.95;8.68;;;29.00;81.90;;;;;;7403687;19;19926;-75
2023/07/11 07:54:32;;;;;;;;;;;29.20;81.50;;;;;;7406210;19;19921;-76
2023/07/11 07:56:58;;;;;;;27.88;8.75;;;29.20;81.10;;;;;;7402894;19;19986;-75
2023/07/11 07:59:24;;;;;;;25.45;8.57;;;29.20;81.00;;;;;;7404133;19;19947;-74
2023/07/11 08:01:49;;;;;;;22.63;8.63;;;29.40;80.50;;;;;;7404560;19;20391;-75
2023/07/11 08:04:15;;;;;;;21.95;8.63;;;29.20;80.20;;;;;;7403132;19;20248;-75
2023/07/11 08:06:41;;;;;;;27.90;8.57;;;29.20;81.60;;;;;;7403545;19;20324;-75
2023/07/11 08:09:07;;;;;;;21.20;7.90;;;29.40;81.10;;;;;;7403412;19;19950;-75
2023/07/11 08:11:33;;;;;;;24.45;8.20;;;29.40;80.60;;;;;;7400305;19;19929;-75
2023/07/11 08:13:58;;;;;;;31.13;8.63;;;29.50;79.60;;;;;;7402882;19;19974;-74
2023/07/11 08:16:24;;;;;;;32.15;8.85;;;29.50;79.90;;;;;;7401745;19;20246;-75
2023/07/11 08:18:51;;;;;;;26.67;8.85;;;29.70;79.90;;;;;;7402258;19;20471;-74
2023/07/11 08:21:17;;;;;;;29.40;9.57;;;29.80;79.30;;;;;;7403163;19;19915;-75
2023/07/11 08:23:43;;;;;;;25.83;8.68;;;29.80;79.20;;;;;;7401847;19;20243;-74
2023/07/11 08:26:10;;;;;;;31.35;10.07;;;29.80;78.80;;;;;;7401438;19;19931;-75
2023/07/11 08:28:36;;;;;;;30.02;10.98;;;29.70;83.00;;;;;;7401713;19;20012;-74
2023/07/11 08:31:03;;;;;;;28.08;10.50;;;29.80;85.60;;;;;;7403862;19;19936;-74
2023/07/11 08:33:29;;;;;;;24.40;10.02;;;29.90;87.30;;;;;;7401734;19;19922;-74
2023/07/11 08:35:56;;;;;;;22.05;10.25;;;30.00;87.70;;;;;;7401057;19;20247;-74
2023/07/11 08:38:23;;;;;;;24.88;11.15;;;29.90;87.70;;;;;;7400543;19;19910;-75
2023/07/11 08:40:49;;;;;;;23.55;10.05;;;30.00;88.70;;;;;;7403920;19;19915;-74
2023/07/11 08:43:25;;;;;;;;;;;30.10;88.80;;;;;;7401676;19;19951;-74
2023/07/11 08:45:59;;;;;;;21.35;11.18;;;30.20;88.50;;;;;;7401252;19;19915;-75
2023/07/11 08:48:32;;;;;;;28.50;10.63;;;30.10;89.40;;;;;;7399352;19;20241;-75
2023/07/11 08:51:01;;;;;;;22.30;10.80;;;29.90;90.00;;;;;;7401870;19;20367;-75
2023/07/11 08:53:33;;;;;;;23.85;11.02;;;29.70;90.50;;;;;;7399483;19;19915;-74
2023/07/11 08:56:13;;;;;;;22.63;9.82;;;29.70;90.00;;;;;;7400430;19;20007;-75
2023/07/11 08:58:42;;;;;;;23.60;9.43;;;29.80;89.70;;;;;;7400013;19;19914;-75
2023/07/11 09:01:40;;;;;;;21.65;9.07;;;30.00;88.40;;;;;;7399288;19;19911;-75
2023/07/11 09:04:12;;;;;;;25.27;9.15;;;30.00;87.90;;;;;;7400079;19;20343;-76
2023/07/11 09:06:46;;;;;;;23.10;8.60;;;30.10;87.10;;;;;;7400565;19;19911;-75
2023/07/11 09:09:12;;;;;;;21.98;8.88;;;30.30;86.00;;;;;;7401620;19;19915;-75
2023/07/11 09:12:00;;;;;;;20.75;7.93;;;30.40;85.30;;;;;;7400374;19;19918;-74
2023/07/11 09:14:37;;;;;;;19.73;8.57;;;30.50;84.60;;;;;;7401981;19;19958;-76
2023/07/11 09:17:21;;;;;;;22.05;8.02;;;30.40;85.10;;;;;;7398358;19;19927;-75
2023/07/11 09:20:22;;;;;;;23.23;8.70;;;30.40;84.10;;;;;;7401705;19;20027;-76
2023/07/11 09:23:01;;;;;;;21.50;8.60;;;30.30;85.40;;;;;;7395961;19;19994;-75
2023/07/11 09:25:37;;;;;;;24.45;8.70;;;30.60;85.10;;;;;;7400502;19;19922;-74
2023/07/11 09:28:27;;;;;;;23.70;9.10;;;30.70;84.30;;;;;;7400414;19;19914;-75
2023/07/11 09:31:00;;;;;;;23.17;8.45;;;30.60;84.60;;;;;;7398825;19;20014;-74
2023/07/11 09:33:33;;;;;;;23.38;8.43;;;30.80;84.20;;;;;;7401059;19;19926;-75
2023/07/11 09:36:01;;;;;;;21.10;8.00;;;30.90;83.90;;;;;;7400954;19;19927;-75
2023/07/11 09:38:42;;;;;;;21.35;8.45;;;30.90;84.30;;;;;;7401072;19;19947;-75
2023/07/11 09:41:19;;;;;;;29.73;8.88;;;30.60;85.20;;;;;;7397601;19;19914;-75
2023/07/11 09:43:45;;;;;;;26.98;8.75;;;30.70;85.00;;;;;;7401587;19;19925;-73
2023/07/11 09:46:20;;;;;;;20.15;7.28;;;30.40;84.50;;;;;;7366113;19;19993;-73
2023/07/11 09:48:48;;;;;;;26.65;7.95;;;30.60;85.90;;;;;;7401511;19;19926;-74
2023/07/11 09:51:19;;;;;;;23.45;8.38;;;30.50;85.50;;;;;;7399969;19;19910;-73
2023/07/11 09:53:46;;;;;;;22.15;7.10;;;30.50;85.00;;;;;;7397334;19;20010;-74
2023/07/11 09:56:15;;;;;;;27.10;8.07;;;31.00;83.10;;;;;;7397649;19;21137;-73
2023/07/11 09:59:03;;;;;;;24.40;7.80;;;31.10;82.80;;;;;;7398992;19;19922;-73
2023/07/11 10:01:36;;;;;;;21.08;7.30;;;31.60;80.90;;;;;;7398222;19;19918;-73
2023/07/11 10:04:06;;;;;;;27.02;8.05;;;31.80;80.10;;;;;;7399103;19;19939;-73
2023/07/11 10:06:34;;;;;;;28.23;7.85;;;31.80;79.90;;;;;;7399082;19;19929;-74
2023/07/11 10:09:27;;;;;;;24.30;7.85;;;31.30;80.60;;;;;;7401445;19;19994;-74
2023/07/11 10:11:57;;;;;;;29.83;8.52;;;31.50;80.30;;;;;;7397442;19;20355;-74
2023/07/11 10:14:36;;;;;;;22.20;7.82;;;31.00;78.70;;;;;;7396092;19;19947;-74
2023/07/11 10:17:21;;;;;;;24.90;7.88;;;31.00;78.20;;;;;;7397675;19;19922;-75
2023/07/11 10:19:54;;;;;;;24.02;7.40;;;31.40;77.20;;;;;;7401184;19;19918;-75
2023/07/11 10:22:26;;;;;;;24.35;7.85;;;31.60;78.70;;;;;;7397517;19;19931;-75
2023/07/11 10:25:17;;;;;;;29.35;8.35;;;31.80;79.30;;;;;;7398761;19;19926;-73
2023/07/11 10:27:50;;;;;;;27.75;7.70;;;31.50;77.30;;;;;;7397180;19;20347;-74
2023/07/11 10:30:30;;;;;;;32.10;8.43;;;31.50;78.20;;;;;;7399587;19;19918;-74
2023/07/11 10:33:05;;;;;;;25.50;6.97;;;31.60;79.20;;;;;;7397216;19;19918;-75
2023/07/11 10:35:33;;;;;;;28.00;7.53;;;31.80;79.70;;;;;;7398629;19;19928;-75
2023/07/11 10:38:06;;;;;;;25.65;6.85;;;31.90;79.80;;;;;;7399518;19;19957;-75
2023/07/11 10:40:38;;;;;;;36.65;10.10;;;32.10;78.50;;;;;;7399266;19;19915;-75
2023/07/11 10:43:04;;;;;;;30.20;7.00;;;32.10;77.60;;;;;;7396662;19;19918;-74
2023/07/11 10:45:35;;;;;;;29.25;7.72;;;31.70;77.70;;;;;;7399039;19;19943;-75
2023/07/11 10:48:25;;;;;;;34.72;8.27;;;31.80;77.40;;;;;;7397796;19;20343;-74
2023/07/11 10:51:13;;;;;;;33.28;8.25;;;31.90;77.70;;;;;;7398465;19;19989;-74
2023/07/11 10:53:47;;;;;;;33.40;8.15;;;32.20;76.70;;;;;;7398346;19;20267;-74
2023/07/11 10:56:24;;;;;;;27.02;7.57;;;32.50;76.40;;;;;;7398105;19;19926;-74
2023/07/11 10:58:52;;;;;;;34.05;7.18;;;32.40;76.10;;;;;;7399341;19;19911;-74
2023/07/11 11:01:46;;;;;;;33.90;7.35;;;32.10;76.60;;;;;;7397718;19;19926;-74
2023/07/11 11:04:25;;;;;;;29.98;7.60;;;32.00;77.30;;;;;;7396956;19;19918;-75
2023/07/11 11:06:51;;;;;;;;;;;31.80;77.10;;;;;;7400099;19;20356;-75
2023/07/11 11:09:21;;;;;;;29.85;7.07;;;31.10;78.70;;;;;;7397126;19;19922;-75
2023/07/11 11:12:13;;;;;;;29.83;7.80;;;31.20;75.90;;;;;;7398506;19;19922;-75
2023/07/11 11:14:46;;;;;;;29.80;7.13;;;31.50;78.00;;;;;;7394603;19;20247;-74
2023/07/11 11:17:19;;;;;;;26.95;7.43;;;31.40;79.60;;;;;;7393845;19;20047;-74
2023/07/11 11:20:06;;;;;;;23.85;6.95;;;31.70;79.80;;;;;;7399240;19;19920;-74
2023/07/11 11:22:48;;;;;;;30.88;7.00;;;31.70;80.90;;;;;;7395521;19;19939;-75
2023/07/11 11:25:17;;;;;;;51.58;26.63;;;31.60;82.90;;;;;;7395653;19;19943;-75
2023/07/11 11:27:55;;;;;;;32.40;10.23;;;31.40;84.40;;;;;;7397242;19;19931;-74
2023/07/11 11:30:45;;;;;;;31.60;9.07;;;31.70;83.90;;;;;;7396498;19;20252;-74
2023/07/11 11:33:28;;;;;;;27.90;7.88;;;31.50;83.60;;;;;;7394274;19;19947;-75
2023/07/11 11:36:02;;;;;;;23.60;8.63;;;31.70;82.70;;;;;;7396284;19;20600;-75
2023/07/11 11:38:38;;;;;;;25.33;7.88;;;31.80;82.50;;;;;;7397421;19;19935;-75
2023/07/11 11:41:12;;;;;;;31.20;8.45;;;32.20;82.60;;;;;;7395917;19;19926;-76
2023/07/11 11:43:39;;;;;;;28.30;8.18;;;32.40;81.60;;;;;;7397322;19;19918;-74
2023/07/11 11:46:07;;;;;;;30.50;8.38;;;33.10;79.80;;;;;;7397561;19;19939;-75
2023/07/11 11:48:36;;;;;;;28.55;8.73;;;33.50;78.40;;;;;;7381933;19;19925;-74
2023/07/11 11:51:06;;;;;;;34.45;7.65;;;33.80;77.50;;;;;;7368412;19;19978;-75
2023/07/11 11:53:43;;;;;;;23.88;7.68;;;34.20;76.10;;;;;;7405483;19;19918;-75
2023/07/11 11:56:13;;;;;;;22.88;7.75;;;33.90;76.20;;;;;;7369318;19;20426;-76
2023/07/11 11:59:00;;;;;;;24.60;8.13;;;33.90;73.40;;;;;;7402623;19;19922;-74
2023/07/11 12:01:30;;;;;;;24.50;7.00;;;32.70;75.70;;;;;;7402992;19;19944;-75
2023/07/11 12:03:56;;;;;;;23.75;7.90;;;32.80;74.50;;;;;;7401775;19;19910;-75
2023/07/11 12:06:42;;;;;;;;;;;32.60;72.80;;;;;;7404479;19;19937;-75
2023/07/11 12:09:17;;;;;;;28.90;7.43;;;33.10;73.80;;;;;;7400932;19;20328;-75
2023/07/11 12:12:06;;;;;;;16.85;6.20;;;33.70;73.00;;;;;;7402818;19;19986;-76
2023/07/11 12:14:36;;;;;;;23.58;7.95;;;33.60;71.30;;;;;;7400029;19;20469;-75
2023/07/11 12:17:02;;;;;;;21.58;8.63;;;33.40;71.70;;;;;;7400420;19;20496;-74
2023/07/11 12:19:38;;;;;;;23.00;6.22;;;32.60;74.30;;;;;;7399845;19;20143;-77
2023/07/11 12:22:07;;;;;;;23.50;6.82;;;33.10;68.70;;;;;;7400398;19;19918;-74
2023/07/11 12:24:32;;;;;;;19.70;6.20;;;33.30;69.20;;;;;;7401052;19;19963;-75
2023/07/11 12:27:09;;;;;;;26.27;5.82;;;34.10;65.80;;;;;;7402618;19;19915;-75
2023/07/11 12:29:38;;;;;;;21.20;6.80;;;34.50;66.10;;;;;;7401445;19;20345;-75
2023/07/11 12:32:29;;;;;;;29.42;7.13;;;35.10;65.80;;;;;;7367364;19;19943;-75
2023/07/11 12:34:56;;;;;;;24.77;7.28;;;35.80;65.10;;;;;;7403179;19;20324;-75
2023/07/11 12:37:26;;;;;;;20.98;7.13;;;35.30;66.30;;;;;;7396686;19;20328;-73
2023/07/11 12:40:36;;;;;;;29.15;6.72;;;35.00;66.90;;;;;;7404857;19;19926;-75
2023/07/11 12:43:03;;;;;;;19.45;7.22;;;35.00;67.20;;;;;;7400136;19;19915;-75
2023/07/11 12:45:51;;;;;;;27.75;7.03;;;34.80;68.30;;;;;;7378325;19;19922;-74
2023/07/11 12:48:31;;;;;;;19.42;6.57;;;34.70;69.20;;;;;;7398644;19;19985;-76